sensor_id;sensor_type;location;lat;lon;timestamp;temperature;humidity
43987;DHT22;29650;47.378;8.300;2022-08-21T00:00:21;18.10;99.90
43987;DHT22;29650;47.378;8.300;2022-08-21T00:02:50;18.00;99.90
43987;DHT22;29650;47.378;8.300;2022-08-21T00:05:17;18.00;99.90
43987;DHT22;29650;47.378;8.300;2022-08-21T00:07:44;18.00;99.90
43987;DHT22;29650;47.378;8.300;2022-08-21T00:10:11;18.10;99.90
43987;DHT22;29650;47.378;8.300;2022-08-21T00:12:38;17.90;99.90
43987;DHT22;29650;47.378;8.300;2022-08-21T00:15:05;17.90;99.90
43987;DHT22;29650;47.378;8.300;2022-08-21T00:17:34;17.90;99.90
43987;DHT22;29650;47.378;8.300;2022-08-21T00:20:01;17.90;99.90
43987;DHT22;29650;47.378;8.300;2022-08-21T00:22:28;17.90;99.90
43987;DHT22;29650;47.378;8.300;2022-08-21T00:24:55;17.90;99.90
43987;DHT22;29650;47.378;8.300;2022-08-21T00:27:21;17.90;99.90
43987;DHT22;29650;47.378;8.300;2022-08-21T00:29:48;18.00;99.90
43987;DHT22;29650;47.378;8.300;2022-08-21T00:32:19;18.00;99.90
43987;DHT22;29650;47.378;8.300;2022-08-21T00:34:47;18.00;99.90
43987;DHT22;29650;47.378;8.300;2022-08-21T00:37:13;18.00;99.90
43987;DHT22;29650;47.378;8.300;2022-08-21T00:39:40;18.00;99.90
43987;DHT22;29650;47.378;8.300;2022-08-21T00:42:07;18.10;99.90
43987;DHT22;29650;47.378;8.300;2022-08-21T00:44:34;18.10;99.90
43987;DHT22;29650;47.378;8.300;2022-08-21T00:47:01;18.00;99.90
43987;DHT22;29650;47.378;8.300;2022-08-21T00:49:27;17.90;99.90
43987;DHT22;29650;47.378;8.300;2022-08-21T00:51:57;17.90;99.90
43987;DHT22;29650;47.378;8.300;2022-08-21T00:54:25;18.00;99.90
43987;DHT22;29650;47.378;8.300;2022-08-21T00:56:53;17.80;99.90
43987;DHT22;29650;47.378;8.300;2022-08-21T00:59:20;17.90;99.90
43987;DHT22;29650;47.378;8.300;2022-08-21T01:01:48;17.90;99.90
43987;DHT22;29650;47.378;8.300;2022-08-21T01:04:15;17.90;99.90
43987;DHT22;29650;47.378;8.300;2022-08-21T01:06:42;17.90;99.90
43987;DHT22;29650;47.378;8.300;2022-08-21T01:09:10;17.90;99.90
43987;DHT22;29650;47.378;8.300;2022-08-21T01:11:37;18.00;99.90
43987;DHT22;29650;47.378;8.300;2022-08-21T01:14:04;18.00;99.90
43987;DHT22;29650;47.378;8.300;2022-08-21T01:16:31;17.90;99.90
43987;DHT22;29650;47.378;8.300;2022-08-21T01:18:58;17.90;99.90
43987;DHT22;29650;47.378;8.300;2022-08-21T01:21:27;17.90;99.90
43987;DHT22;29650;47.378;8.300;2022-08-21T01:23:54;18.00;99.90
43987;DHT22;29650;47.378;8.300;2022-08-21T01:26:23;17.90;99.90
43987;DHT22;29650;47.378;8.300;2022-08-21T01:28:52;17.90;99.90
43987;DHT22;29650;47.378;8.300;2022-08-21T01:31:21;17.90;99.90
43987;DHT22;29650;47.378;8.300;2022-08-21T01:33:49;18.00;99.90
43987;DHT22;29650;47.378;8.300;2022-08-21T01:36:15;18.00;99.90
43987;DHT22;29650;47.378;8.300;2022-08-21T01:38:44;17.90;99.90
43987;DHT22;29650;47.378;8.300;2022-08-21T01:41:12;18.00;99.90
43987;DHT22;29650;47.378;8.300;2022-08-21T01:43:39;18.10;99.90
43987;DHT22;29650;47.378;8.300;2022-08-21T01:46:06;17.90;99.90
43987;DHT22;29650;47.378;8.300;2022-08-21T01:48:33;17.90;99.90
43987;DHT22;29650;47.378;8.300;2022-08-21T01:51:00;18.00;99.90
43987;DHT22;29650;47.378;8.300;2022-08-21T01:53:26;18.00;99.90
43987;DHT22;29650;47.378;8.300;2022-08-21T01:55:54;17.90;99.90
43987;DHT22;29650;47.378;8.300;2022-08-21T01:58:21;18.00;99.90
43987;DHT22;29650;47.378;8.300;2022-08-21T02:00:48;17.90;99.90
43987;DHT22;29650;47.378;8.300;2022-08-21T02:03:15;17.90;99.90
43987;DHT22;29650;47.378;8.300;2022-08-21T02:05:41;17.90;99.90
43987;DHT22;29650;47.378;8.300;2022-08-21T02:08:08;17.80;99.90
43987;DHT22;29650;47.378;8.300;2022-08-21T02:10:35;17.90;99.90
43987;DHT22;29650;47.378;8.300;2022-08-21T02:13:03;18.00;99.90
43987;DHT22;29650;47.378;8.300;2022-08-21T02:15:30;18.10;99.90
43987;DHT22;29650;47.378;8.300;2022-08-21T02:17:57;18.00;99.90
43987;DHT22;29650;47.378;8.300;2022-08-21T02:20:26;18.00;99.90
43987;DHT22;29650;47.378;8.300;2022-08-21T02:22:53;17.80;99.90
43987;DHT22;29650;47.378;8.300;2022-08-21T02:25:20;17.70;99.90
43987;DHT22;29650;47.378;8.300;2022-08-21T02:27:47;17.60;99.90
43987;DHT22;29650;47.378;8.300;2022-08-21T02:30:16;17.70;99.90
43987;DHT22;29650;47.378;8.300;2022-08-21T02:32:43;17.50;99.90
43987;DHT22;29650;47.378;8.300;2022-08-21T02:35:10;17.40;99.90
43987;DHT22;29650;47.378;8.300;2022-08-21T02:37:42;17.50;99.90
43987;DHT22;29650;47.378;8.300;2022-08-21T02:40:09;17.60;99.90
43987;DHT22;29650;47.378;8.300;2022-08-21T02:42:36;17.50;99.90
43987;DHT22;29650;47.378;8.300;2022-08-21T02:45:04;17.60;99.90
43987;DHT22;29650;47.378;8.300;2022-08-21T02:47:32;17.40;99.90
43987;DHT22;29650;47.378;8.300;2022-08-21T02:49:59;17.30;99.90
43987;DHT22;29650;47.378;8.300;2022-08-21T02:52:25;17.30;99.90
43987;DHT22;29650;47.378;8.300;2022-08-21T02:54:52;17.40;99.90
43987;DHT22;29650;47.378;8.300;2022-08-21T02:57:19;17.40;99.90
43987;DHT22;29650;47.378;8.300;2022-08-21T02:59:45;17.30;99.90
43987;DHT22;29650;47.378;8.300;2022-08-21T03:02:12;17.30;99.90
43987;DHT22;29650;47.378;8.300;2022-08-21T03:04:40;17.50;99.90
43987;DHT22;29650;47.378;8.300;2022-08-21T03:07:07;17.30;99.90
43987;DHT22;29650;47.378;8.300;2022-08-21T03:09:34;17.40;99.90
43987;DHT22;29650;47.378;8.300;2022-08-21T03:12:00;17.40;99.90
43987;DHT22;29650;47.378;8.300;2022-08-21T03:14:27;17.30;99.90
43987;DHT22;29650;47.378;8.300;2022-08-21T03:16:54;17.30;99.90
43987;DHT22;29650;47.378;8.300;2022-08-21T03:19:20;17.30;99.90
43987;DHT22;29650;47.378;8.300;2022-08-21T03:21:48;17.40;99.90
43987;DHT22;29650;47.378;8.300;2022-08-21T03:24:15;17.30;99.90
43987;DHT22;29650;47.378;8.300;2022-08-21T03:26:42;17.40;99.90
43987;DHT22;29650;47.378;8.300;2022-08-21T03:29:09;17.40;99.90
43987;DHT22;29650;47.378;8.300;2022-08-21T03:31:36;17.50;99.90
43987;DHT22;29650;47.378;8.300;2022-08-21T03:34:02;17.60;99.90
43987;DHT22;29650;47.378;8.300;2022-08-21T03:36:29;17.60;99.90
43987;DHT22;29650;47.378;8.300;2022-08-21T03:38:57;17.60;99.90
43987;DHT22;29650;47.378;8.300;2022-08-21T03:41:24;17.40;99.90
43987;DHT22;29650;47.378;8.300;2022-08-21T03:43:51;17.40;99.90
43987;DHT22;29650;47.378;8.300;2022-08-21T03:46:17;17.40;99.90
43987;DHT22;29650;47.378;8.300;2022-08-21T03:48:44;17.50;99.90
43987;DHT22;29650;47.378;8.300;2022-08-21T03:51:11;17.50;99.90
43987;DHT22;29650;47.378;8.300;2022-08-21T03:53:37;17.60;99.90
43987;DHT22;29650;47.378;8.300;2022-08-21T03:56:06;17.80;99.90
43987;DHT22;29650;47.378;8.300;2022-08-21T03:58:33;17.80;99.90
43987;DHT22;29650;47.378;8.300;2022-08-21T04:00:59;17.90;99.90
43987;DHT22;29650;47.378;8.300;2022-08-21T04:03:27;17.90;99.90
43987;DHT22;29650;47.378;8.300;2022-08-21T04:05:54;17.80;99.90
43987;DHT22;29650;47.378;8.300;2022-08-21T04:08:21;17.90;99.90
43987;DHT22;29650;47.378;8.300;2022-08-21T04:10:50;17.90;99.90
43987;DHT22;29650;47.378;8.300;2022-08-21T04:13:18;17.90;99.90
43987;DHT22;29650;47.378;8.300;2022-08-21T04:15:45;17.90;99.90
43987;DHT22;29650;47.378;8.300;2022-08-21T04:18:12;17.70;99.90
43987;DHT22;29650;47.378;8.300;2022-08-21T04:20:38;17.70;99.90
43987;DHT22;29650;47.378;8.300;2022-08-21T04:23:06;17.80;99.90
43987;DHT22;29650;47.378;8.300;2022-08-21T04:25:33;17.90;99.90
43987;DHT22;29650;47.378;8.300;2022-08-21T04:27:59;17.80;99.90
43987;DHT22;29650;47.378;8.300;2022-08-21T04:30:28;17.80;99.90
43987;DHT22;29650;47.378;8.300;2022-08-21T04:32:56;17.80;99.90
43987;DHT22;29650;47.378;8.300;2022-08-21T04:35:23;17.80;99.90
43987;DHT22;29650;47.378;8.300;2022-08-21T04:37:50;17.70;99.90
43987;DHT22;29650;47.378;8.300;2022-08-21T04:40:17;17.80;99.90
43987;DHT22;29650;47.378;8.300;2022-08-21T04:42:45;17.80;99.90
43987;DHT22;29650;47.378;8.300;2022-08-21T04:45:18;17.70;99.90
43987;DHT22;29650;47.378;8.300;2022-08-21T04:47:49;17.80;99.90
43987;DHT22;29650;47.378;8.300;2022-08-21T04:50:16;17.60;99.90
43987;DHT22;29650;47.378;8.300;2022-08-21T04:52:43;17.50;99.90
43987;DHT22;29650;47.378;8.300;2022-08-21T04:55:10;17.50;99.90
43987;DHT22;29650;47.378;8.300;2022-08-21T04:57:38;17.60;99.90
43987;DHT22;29650;47.378;8.300;2022-08-21T05:00:06;17.70;99.90
43987;DHT22;29650;47.378;8.300;2022-08-21T05:02:33;17.70;99.90
43987;DHT22;29650;47.378;8.300;2022-08-21T05:05:01;17.90;99.90
43987;DHT22;29650;47.378;8.300;2022-08-21T05:07:28;17.90;99.90
43987;DHT22;29650;47.378;8.300;2022-08-21T05:09:56;17.80;99.90
43987;DHT22;29650;47.378;8.300;2022-08-21T05:12:23;17.80;99.90
43987;DHT22;29650;47.378;8.300;2022-08-21T05:14:50;17.90;99.90
43987;DHT22;29650;47.378;8.300;2022-08-21T05:17:16;17.90;99.90
43987;DHT22;29650;47.378;8.300;2022-08-21T05:19:43;17.90;99.90
43987;DHT22;29650;47.378;8.300;2022-08-21T05:22:11;17.90;99.90
43987;DHT22;29650;47.378;8.300;2022-08-21T05:24:44;17.90;99.90
43987;DHT22;29650;47.378;8.300;2022-08-21T05:27:11;18.00;99.90
43987;DHT22;29650;47.378;8.300;2022-08-21T05:29:38;18.10;99.90
43987;DHT22;29650;47.378;8.300;2022-08-21T05:32:07;18.10;99.90
43987;DHT22;29650;47.378;8.300;2022-08-21T05:34:34;18.10;99.90
43987;DHT22;29650;47.378;8.300;2022-08-21T05:37:01;18.00;99.90
43987;DHT22;29650;47.378;8.300;2022-08-21T05:39:29;18.10;99.90
43987;DHT22;29650;47.378;8.300;2022-08-21T05:41:56;18.20;99.90
43987;DHT22;29650;47.378;8.300;2022-08-21T05:44:22;18.10;99.90
43987;DHT22;29650;47.378;8.300;2022-08-21T05:46:49;18.20;99.90
43987;DHT22;29650;47.378;8.300;2022-08-21T05:49:16;18.20;99.90
43987;DHT22;29650;47.378;8.300;2022-08-21T05:51:42;18.20;99.90
43987;DHT22;29650;47.378;8.300;2022-08-21T05:54:09;18.40;99.90
43987;DHT22;29650;47.378;8.300;2022-08-21T05:56:37;18.30;99.90
43987;DHT22;29650;47.378;8.300;2022-08-21T05:59:04;18.30;99.90
43987;DHT22;29650;47.378;8.300;2022-08-21T06:01:31;18.40;99.90
43987;DHT22;29650;47.378;8.300;2022-08-21T06:03:57;18.30;99.90
43987;DHT22;29650;47.378;8.300;2022-08-21T06:06:24;18.40;99.90
43987;DHT22;29650;47.378;8.300;2022-08-21T06:08:51;18.30;99.90
43987;DHT22;29650;47.378;8.300;2022-08-21T06:11:18;18.10;99.90
43987;DHT22;29650;47.378;8.300;2022-08-21T06:13:46;18.00;99.90
43987;DHT22;29650;47.378;8.300;2022-08-21T06:16:13;18.20;99.90
43987;DHT22;29650;47.378;8.300;2022-08-21T06:18:41;18.10;99.90
43987;DHT22;29650;47.378;8.300;2022-08-21T06:21:08;17.90;99.90
43987;DHT22;29650;47.378;8.300;2022-08-21T06:23:37;17.90;99.90
43987;DHT22;29650;47.378;8.300;2022-08-21T06:26:05;17.80;99.90
43987;DHT22;29650;47.378;8.300;2022-08-21T06:28:32;17.90;99.90
43987;DHT22;29650;47.378;8.300;2022-08-21T06:31:01;17.90;99.90
43987;DHT22;29650;47.378;8.300;2022-08-21T06:33:27;17.80;99.90
43987;DHT22;29650;47.378;8.300;2022-08-21T06:35:54;17.90;99.90
43987;DHT22;29650;47.378;8.300;2022-08-21T06:38:21;17.80;99.90
43987;DHT22;29650;47.378;8.300;2022-08-21T06:40:47;17.90;99.90
43987;DHT22;29650;47.378;8.300;2022-08-21T06:43:15;18.10;99.90
43987;DHT22;29650;47.378;8.300;2022-08-21T06:45:42;18.20;99.90
43987;DHT22;29650;47.378;8.300;2022-08-21T06:48:10;18.30;99.90
43987;DHT22;29650;47.378;8.300;2022-08-21T06:50:37;18.40;99.90
43987;DHT22;29650;47.378;8.300;2022-08-21T06:53:06;18.60;99.90
43987;DHT22;29650;47.378;8.300;2022-08-21T06:55:33;18.70;99.90
43987;DHT22;29650;47.378;8.300;2022-08-21T06:58:00;18.80;99.90
43987;DHT22;29650;47.378;8.300;2022-08-21T07:00:27;19.00;99.90
43987;DHT22;29650;47.378;8.300;2022-08-21T07:02:53;19.00;99.90
43987;DHT22;29650;47.378;8.300;2022-08-21T07:05:21;18.70;99.90
43987;DHT22;29650;47.378;8.300;2022-08-21T07:07:48;18.70;99.90
43987;DHT22;29650;47.378;8.300;2022-08-21T07:10:15;18.60;99.90
43987;DHT22;29650;47.378;8.300;2022-08-21T07:12:42;18.60;99.90
43987;DHT22;29650;47.378;8.300;2022-08-21T07:15:09;18.70;99.90
43987;DHT22;29650;47.378;8.300;2022-08-21T07:17:36;18.70;99.90
43987;DHT22;29650;47.378;8.300;2022-08-21T07:20:03;18.80;99.90
43987;DHT22;29650;47.378;8.300;2022-08-21T07:22:32;18.90;99.90
43987;DHT22;29650;47.378;8.300;2022-08-21T07:24:58;18.90;99.90
43987;DHT22;29650;47.378;8.300;2022-08-21T07:27:25;18.90;99.90
43987;DHT22;29650;47.378;8.300;2022-08-21T07:29:52;18.90;99.90
43987;DHT22;29650;47.378;8.300;2022-08-21T07:32:19;18.80;99.90
43987;DHT22;29650;47.378;8.300;2022-08-21T07:34:46;18.90;99.90
43987;DHT22;29650;47.378;8.300;2022-08-21T07:37:12;18.80;99.90
43987;DHT22;29650;47.378;8.300;2022-08-21T07:39:40;18.70;99.90
43987;DHT22;29650;47.378;8.300;2022-08-21T07:42:07;18.70;99.90
43987;DHT22;29650;47.378;8.300;2022-08-21T07:44:35;18.70;99.90
43987;DHT22;29650;47.378;8.300;2022-08-21T07:47:02;18.70;99.90
43987;DHT22;29650;47.378;8.300;2022-08-21T07:49:28;18.90;99.90
43987;DHT22;29650;47.378;8.300;2022-08-21T07:51:55;18.90;99.90
43987;DHT22;29650;47.378;8.300;2022-08-21T07:54:22;19.00;99.90
43987;DHT22;29650;47.378;8.300;2022-08-21T07:56:50;19.10;99.90
43987;DHT22;29650;47.378;8.300;2022-08-21T07:59:16;19.50;99.90
43987;DHT22;29650;47.378;8.300;2022-08-21T08:01:43;19.70;99.90
43987;DHT22;29650;47.378;8.300;2022-08-21T08:04:10;20.00;99.90
43987;DHT22;29650;47.378;8.300;2022-08-21T08:06:36;20.10;99.90
43987;DHT22;29650;47.378;8.300;2022-08-21T08:09:03;20.50;99.90
43987;DHT22;29650;47.378;8.300;2022-08-21T08:11:30;20.00;99.90
43987;DHT22;29650;47.378;8.300;2022-08-21T08:13:58;20.60;99.90
43987;DHT22;29650;47.378;8.300;2022-08-21T08:16:25;20.30;99.90
43987;DHT22;29650;47.378;8.300;2022-08-21T08:18:51;20.70;99.90
43987;DHT22;29650;47.378;8.300;2022-08-21T08:21:21;20.60;99.90
43987;DHT22;29650;47.378;8.300;2022-08-21T08:23:48;20.50;99.90
43987;DHT22;29650;47.378;8.300;2022-08-21T08:26:14;20.50;99.90
43987;DHT22;29650;47.378;8.300;2022-08-21T08:28:41;20.40;99.90
43987;DHT22;29650;47.378;8.300;2022-08-21T08:31:10;20.40;99.90
43987;DHT22;29650;47.378;8.300;2022-08-21T08:33:37;20.30;99.90
43987;DHT22;29650;47.378;8.300;2022-08-21T08:36:04;20.60;99.90
43987;DHT22;29650;47.378;8.300;2022-08-21T08:38:30;20.90;99.90
43987;DHT22;29650;47.378;8.300;2022-08-21T08:41:00;21.20;99.90
43987;DHT22;29650;47.378;8.300;2022-08-21T08:43:28;21.20;99.90
43987;DHT22;29650;47.378;8.300;2022-08-21T08:45:55;21.20;99.90
43987;DHT22;29650;47.378;8.300;2022-08-21T08:48:30;20.90;99.90
43987;DHT22;29650;47.378;8.300;2022-08-21T08:50:59;20.80;99.90
43987;DHT22;29650;47.378;8.300;2022-08-21T08:53:28;20.70;99.90
43987;DHT22;29650;47.378;8.300;2022-08-21T08:55:56;20.90;99.90
43987;DHT22;29650;47.378;8.300;2022-08-21T08:58:24;21.00;99.90
43987;DHT22;29650;47.378;8.300;2022-08-21T09:00:52;21.20;99.90
43987;DHT22;29650;47.378;8.300;2022-08-21T09:03:20;21.10;99.90
43987;DHT22;29650;47.378;8.300;2022-08-21T09:05:49;21.30;99.90
43987;DHT22;29650;47.378;8.300;2022-08-21T09:08:32;21.40;99.90
43987;DHT22;29650;47.378;8.300;2022-08-21T09:11:03;21.40;99.90
43987;DHT22;29650;47.378;8.300;2022-08-21T09:13:33;21.50;99.90
43987;DHT22;29650;47.378;8.300;2022-08-21T09:16:04;21.30;99.90
43987;DHT22;29650;47.378;8.300;2022-08-21T09:18:35;21.20;99.90
43987;DHT22;29650;47.378;8.300;2022-08-21T09:21:07;21.30;99.90
43987;DHT22;29650;47.378;8.300;2022-08-21T09:23:38;21.50;99.90
43987;DHT22;29650;47.378;8.300;2022-08-21T09:26:11;21.40;99.90
43987;DHT22;29650;47.378;8.300;2022-08-21T09:28:38;21.40;99.90
43987;DHT22;29650;47.378;8.300;2022-08-21T09:31:07;21.50;99.90
43987;DHT22;29650;47.378;8.300;2022-08-21T09:33:33;21.40;99.90
43987;DHT22;29650;47.378;8.300;2022-08-21T09:36:00;21.80;99.90
43987;DHT22;29650;47.378;8.300;2022-08-21T09:38:30;22.00;99.90
43987;DHT22;29650;47.378;8.300;2022-08-21T09:40:59;22.30;99.90
43987;DHT22;29650;47.378;8.300;2022-08-21T09:43:26;21.90;99.90
43987;DHT22;29650;47.378;8.300;2022-08-21T09:46:04;21.90;99.90
43987;DHT22;29650;47.378;8.300;2022-08-21T09:48:38;22.00;99.90
43987;DHT22;29650;47.378;8.300;2022-08-21T09:51:05;21.90;99.90
43987;DHT22;29650;47.378;8.300;2022-08-21T09:53:34;22.10;99.90
43987;DHT22;29650;47.378;8.300;2022-08-21T09:56:02;22.10;99.90
43987;DHT22;29650;47.378;8.300;2022-08-21T09:58:48;22.00;99.90
43987;DHT22;29650;47.378;8.300;2022-08-21T10:01:16;22.40;99.90
43987;DHT22;29650;47.378;8.300;2022-08-21T10:03:43;22.60;99.90
43987;DHT22;29650;47.378;8.300;2022-08-21T10:06:19;22.90;99.90
43987;DHT22;29650;47.378;8.300;2022-08-21T10:08:48;22.60;99.90
43987;DHT22;29650;47.378;8.300;2022-08-21T10:11:15;22.80;99.90
43987;DHT22;29650;47.378;8.300;2022-08-21T10:13:45;23.10;99.90
43987;DHT22;29650;47.378;8.300;2022-08-21T10:16:17;22.90;99.90
43987;DHT22;29650;47.378;8.300;2022-08-21T10:18:51;22.80;99.90
43987;DHT22;29650;47.378;8.300;2022-08-21T10:21:21;22.80;99.90
43987;DHT22;29650;47.378;8.300;2022-08-21T10:23:56;22.90;99.90
43987;DHT22;29650;47.378;8.300;2022-08-21T10:26:31;22.70;99.90
43987;DHT22;29650;47.378;8.300;2022-08-21T10:29:02;22.50;99.90
43987;DHT22;29650;47.378;8.300;2022-08-21T10:31:32;22.70;99.90
43987;DHT22;29650;47.378;8.300;2022-08-21T10:34:06;22.80;99.90
43987;DHT22;29650;47.378;8.300;2022-08-21T10:36:36;22.80;99.90
43987;DHT22;29650;47.378;8.300;2022-08-21T10:39:10;23.30;99.90
43987;DHT22;29650;47.378;8.300;2022-08-21T10:41:42;23.70;99.90
43987;DHT22;29650;47.378;8.300;2022-08-21T10:44:13;23.80;99.40
43987;DHT22;29650;47.378;8.300;2022-08-21T10:46:48;23.70;98.60
43987;DHT22;29650;47.378;8.300;2022-08-21T10:49:29;23.80;98.40
43987;DHT22;29650;47.378;8.300;2022-08-21T10:52:02;23.70;98.20
43987;DHT22;29650;47.378;8.300;2022-08-21T10:54:36;23.60;97.30
43987;DHT22;29650;47.378;8.300;2022-08-21T10:57:07;23.90;98.50
43987;DHT22;29650;47.378;8.300;2022-08-21T10:59:38;24.10;96.90
43987;DHT22;29650;47.378;8.300;2022-08-21T11:02:08;24.20;97.30
43987;DHT22;29650;47.378;8.300;2022-08-21T11:04:38;24.50;95.90
43987;DHT22;29650;47.378;8.300;2022-08-21T11:07:10;24.30;94.00
43987;DHT22;29650;47.378;8.300;2022-08-21T11:09:41;24.00;93.50
43987;DHT22;29650;47.378;8.300;2022-08-21T11:12:12;23.90;93.70
43987;DHT22;29650;47.378;8.300;2022-08-21T11:14:47;24.00;94.50
43987;DHT22;29650;47.378;8.300;2022-08-21T11:17:16;24.00;93.40
43987;DHT22;29650;47.378;8.300;2022-08-21T11:19:45;24.10;93.50
43987;DHT22;29650;47.378;8.300;2022-08-21T11:22:15;24.00;92.50
43987;DHT22;29650;47.378;8.300;2022-08-21T11:24:46;24.20;92.10
43987;DHT22;29650;47.378;8.300;2022-08-21T11:27:17;24.30;93.10
43987;DHT22;29650;47.378;8.300;2022-08-21T11:29:46;24.40;92.80
43987;DHT22;29650;47.378;8.300;2022-08-21T11:35:00;24.30;90.90
43987;DHT22;29650;47.378;8.300;2022-08-21T11:37:32;23.60;90.50
43987;DHT22;29650;47.378;8.300;2022-08-21T11:40:03;23.40;91.50
43987;DHT22;29650;47.378;8.300;2022-08-21T11:42:32;23.40;92.10
43987;DHT22;29650;47.378;8.300;2022-08-21T11:45:10;23.30;92.60
43987;DHT22;29650;47.378;8.300;2022-08-21T11:47:44;23.50;92.70
43987;DHT22;29650;47.378;8.300;2022-08-21T11:50:13;24.20;89.10
43987;DHT22;29650;47.378;8.300;2022-08-21T11:52:40;24.40;90.20
43987;DHT22;29650;47.378;8.300;2022-08-21T11:55:12;24.40;89.20
43987;DHT22;29650;47.378;8.300;2022-08-21T11:57:39;24.30;86.50
43987;DHT22;29650;47.378;8.300;2022-08-21T12:00:10;24.60;86.40
43987;DHT22;29650;47.378;8.300;2022-08-21T12:02:40;24.50;85.30
43987;DHT22;29650;47.378;8.300;2022-08-21T12:05:11;24.50;86.20
43987;DHT22;29650;47.378;8.300;2022-08-21T12:07:39;24.40;84.70
43987;DHT22;29650;47.378;8.300;2022-08-21T12:10:08;25.00;85.40
43987;DHT22;29650;47.378;8.300;2022-08-21T12:12:38;25.40;85.40
43987;DHT22;29650;47.378;8.300;2022-08-21T12:17:57;25.60;85.40
43987;DHT22;29650;47.378;8.300;2022-08-21T12:20:41;25.70;80.70
43987;DHT22;29650;47.378;8.300;2022-08-21T12:23:19;24.90;81.80
43987;DHT22;29650;47.378;8.300;2022-08-21T12:25:59;24.50;83.70
43987;DHT22;29650;47.378;8.300;2022-08-21T12:28:28;24.20;84.80
43987;DHT22;29650;47.378;8.300;2022-08-21T12:30:56;24.00;83.70
43987;DHT22;29650;47.378;8.300;2022-08-21T12:33:24;24.70;84.90
43987;DHT22;29650;47.378;8.300;2022-08-21T12:35:52;25.00;82.60
43987;DHT22;29650;47.378;8.300;2022-08-21T12:38:20;24.90;80.30
43987;DHT22;29650;47.378;8.300;2022-08-21T12:40:48;25.00;78.70
43987;DHT22;29650;47.378;8.300;2022-08-21T12:43:18;24.90;78.30
43987;DHT22;29650;47.378;8.300;2022-08-21T12:45:48;25.10;77.30
43987;DHT22;29650;47.378;8.300;2022-08-21T12:48:18;25.40;74.90
43987;DHT22;29650;47.378;8.300;2022-08-21T12:50:48;25.60;74.80
43987;DHT22;29650;47.378;8.300;2022-08-21T12:53:19;25.60;72.40
43987;DHT22;29650;47.378;8.300;2022-08-21T12:55:49;25.60;73.50
43987;DHT22;29650;47.378;8.300;2022-08-21T12:58:17;25.70;71.30
43987;DHT22;29650;47.378;8.300;2022-08-21T13:00:48;25.60;72.60
43987;DHT22;29650;47.378;8.300;2022-08-21T13:03:15;25.90;72.10
43987;DHT22;29650;47.378;8.300;2022-08-21T13:05:42;26.10;72.70
43987;DHT22;29650;47.378;8.300;2022-08-21T13:08:10;26.30;72.70
43987;DHT22;29650;47.378;8.300;2022-08-21T13:10:39;26.20;72.70
43987;DHT22;29650;47.378;8.300;2022-08-21T13:13:08;26.10;71.20
43987;DHT22;29650;47.378;8.300;2022-08-21T13:15:37;26.20;71.10
43987;DHT22;29650;47.378;8.300;2022-08-21T13:18:06;25.80;70.40
43987;DHT22;29650;47.378;8.300;2022-08-21T13:20:34;26.00;70.10
43987;DHT22;29650;47.378;8.300;2022-08-21T13:23:01;25.90;69.30
43987;DHT22;29650;47.378;8.300;2022-08-21T13:25:29;26.20;69.00
43987;DHT22;29650;47.378;8.300;2022-08-21T13:27:58;26.10;68.80
43987;DHT22;29650;47.378;8.300;2022-08-21T13:30:25;26.40;69.30
43987;DHT22;29650;47.378;8.300;2022-08-21T13:32:54;26.40;68.60
43987;DHT22;29650;47.378;8.300;2022-08-21T13:35:24;26.30;68.50
43987;DHT22;29650;47.378;8.300;2022-08-21T13:37:51;26.40;70.50
43987;DHT22;29650;47.378;8.300;2022-08-21T13:40:19;26.50;69.40
43987;DHT22;29650;47.378;8.300;2022-08-21T13:42:47;27.00;68.90
43987;DHT22;29650;47.378;8.300;2022-08-21T13:45:17;26.70;65.40
43987;DHT22;29650;47.378;8.300;2022-08-21T13:47:45;26.50;65.90
43987;DHT22;29650;47.378;8.300;2022-08-21T13:50:13;26.60;64.70
43987;DHT22;29650;47.378;8.300;2022-08-21T13:52:48;27.00;65.10
43987;DHT22;29650;47.378;8.300;2022-08-21T13:55:16;27.10;64.30
43987;DHT22;29650;47.378;8.300;2022-08-21T13:57:43;27.30;63.60
43987;DHT22;29650;47.378;8.300;2022-08-21T14:00:14;27.20;63.00
43987;DHT22;29650;47.378;8.300;2022-08-21T14:02:42;26.70;62.10
43987;DHT22;29650;47.378;8.300;2022-08-21T14:05:14;27.00;61.80
43987;DHT22;29650;47.378;8.300;2022-08-21T14:07:42;27.20;60.80
43987;DHT22;29650;47.378;8.300;2022-08-21T14:10:14;27.10;59.60
43987;DHT22;29650;47.378;8.300;2022-08-21T14:12:45;26.90;60.30
43987;DHT22;29650;47.378;8.300;2022-08-21T14:15:16;26.80;61.20
43987;DHT22;29650;47.378;8.300;2022-08-21T14:17:44;27.00;60.50
43987;DHT22;29650;47.378;8.300;2022-08-21T14:20:12;27.40;60.80
43987;DHT22;29650;47.378;8.300;2022-08-21T14:22:51;27.30;58.80
43987;DHT22;29650;47.378;8.300;2022-08-21T14:25:28;27.30;57.90
43987;DHT22;29650;47.378;8.300;2022-08-21T14:27:56;27.40;58.60
43987;DHT22;29650;47.378;8.300;2022-08-21T14:30:27;27.50;57.70
43987;DHT22;29650;47.378;8.300;2022-08-21T14:32:54;27.30;55.40
43987;DHT22;29650;47.378;8.300;2022-08-21T14:35:20;27.60;57.40
43987;DHT22;29650;47.378;8.300;2022-08-21T14:37:48;27.90;57.00
43987;DHT22;29650;47.378;8.300;2022-08-21T14:40:16;27.40;55.90
43987;DHT22;29650;47.378;8.300;2022-08-21T14:42:44;27.30;57.30
43987;DHT22;29650;47.378;8.300;2022-08-21T14:45:13;26.90;56.50
43987;DHT22;29650;47.378;8.300;2022-08-21T14:47:40;27.20;57.20
43987;DHT22;29650;47.378;8.300;2022-08-21T14:50:08;27.40;56.30
43987;DHT22;29650;47.378;8.300;2022-08-21T14:52:35;27.30;56.80
43987;DHT22;29650;47.378;8.300;2022-08-21T14:55:02;27.60;56.60
43987;DHT22;29650;47.378;8.300;2022-08-21T14:57:29;27.70;57.00
43987;DHT22;29650;47.378;8.300;2022-08-21T14:59:58;27.70;55.40
43987;DHT22;29650;47.378;8.300;2022-08-21T15:02:25;28.10;55.20
43987;DHT22;29650;47.378;8.300;2022-08-21T15:04:52;27.80;54.60
43987;DHT22;29650;47.378;8.300;2022-08-21T15:07:18;27.50;55.20
43987;DHT22;29650;47.378;8.300;2022-08-21T15:09:45;27.30;55.70
43987;DHT22;29650;47.378;8.300;2022-08-21T15:12:12;27.50;56.00
43987;DHT22;29650;47.378;8.300;2022-08-21T15:14:39;27.50;54.20
43987;DHT22;29650;47.378;8.300;2022-08-21T15:17:07;27.80;52.90
43987;DHT22;29650;47.378;8.300;2022-08-21T15:19:34;27.60;52.90
43987;DHT22;29650;47.378;8.300;2022-08-21T15:22:01;27.60;53.10
43987;DHT22;29650;47.378;8.300;2022-08-21T15:24:28;27.70;54.20
43987;DHT22;29650;47.378;8.300;2022-08-21T15:26:56;27.40;54.60
43987;DHT22;29650;47.378;8.300;2022-08-21T15:29:22;27.40;54.70
43987;DHT22;29650;47.378;8.300;2022-08-21T15:31:51;27.70;54.40
43987;DHT22;29650;47.378;8.300;2022-08-21T15:34:20;28.00;53.60
43987;DHT22;29650;47.378;8.300;2022-08-21T15:36:47;27.90;53.20
43987;DHT22;29650;47.378;8.300;2022-08-21T15:39:13;28.20;52.60
43987;DHT22;29650;47.378;8.300;2022-08-21T15:41:40;28.50;52.30